• Join FlightAware (Why Join?)
  • Login
  • US Flag 
04:57PM EDT


 

Airport Tracker/Info


-or-


 

Live Flight TrackerFlight Track Log ✈ QXE649A ✈ 10-May-2013 ✈ KBLI - KSEA

Flight Track Log - Related Links

Times and Time Zones

All times are in EDT time to prevent confusion due to time zone crossing. See the QXE649A flight status page for this flight to view local times or setup timezone preferences in your user account.

Time Position Orientation Groundspeed Altitude Reporting Facility
EDT Latitude Longitude Course Direction KTS MPH feet Rate Location/Type
04:13PM 48.7500 -122.5333 191° South 130 150 1,800  Level Vancouver Center
04:14PM 48.7000 -122.5833 213° Southwest 180 207 3,100 1,860 Climbing Vancouver Center
04:15PM 48.6500 -122.5667 168° South 220 253 5,600 2,520 Climbing Vancouver Center
04:16PM 48.4684 -122.6379 194° South  Level FlightAware Approximate
04:16PM 48.6122 -122.5578 171° South 224 258 7,700  Level Seattle Center
04:16PM 48.5797 -122.5647 188° South 221 254 8,700 720 Climbing Seattle Center
04:17PM 48.4051 -122.6622 194° South  Level FlightAware Approximate
04:17PM 48.5125 -122.6008 200° South 239 275 8,900  Level Seattle Center
04:18PM 48.3417 -122.6857 191° South  Level FlightAware Approximate
04:18PM 48.4378 -122.6383 198° South 269 310 9,600  Level Seattle Center
04:19PM 48.3617 -122.6706 196° South 285 328 11,100 1,620 Climbing Seattle Center
04:20PM 48.2883 -122.7053 197° South 280 322 12,900 900 Climbing Seattle Center
04:21PM 48.2122 -122.7431 198° South 293 337 13,000  Climbing Seattle Center
04:22PM 48.1772 -122.7656 203° Southwest 322 371 12,900 -120 Descending Seattle Center
04:22PM 48.1125 -122.8039 202° Southwest 327 376 12,900 60 Level Seattle Center
04:23PM 48.0928 -122.8186 207° Southwest 328 377 13,000  Climbing Seattle Center
04:23PM 48.0308 -122.8189 180° South 320 368 12,900 -120 Descending Seattle Center
04:24PM 48.0106 -122.7908 137° Southeast 326 375 12,900 -720 Level Seattle Center
04:24PM 47.9719 -122.7164 128° Southeast 327 376 12,200 -1,140 Descending Seattle Center
04:25PM 47.9531 -122.6836 131° Southeast 328 377 11,800 -1,620 Descending Seattle Center
04:25PM 47.9178 -122.6139 127° Southeast 319 367 10,600 -1,800 Descending Seattle Center
04:26PM 47.8986 -122.5814 131° Southeast 313 360 10,000 -1,680 Descending Seattle Center
04:26PM 47.8633 -122.5153 128° Southeast 310 357 8,900 -1,080 Descending Seattle Center
04:28PM 47.8011 -122.4042 130° Southeast 222 255 7,900 -1,140 Descending Seattle Center
04:28PM 47.7708 -122.3528 131° Southeast 215 247 6,700 -1,080 Descending Seattle Center
04:29PM 47.7300 -122.3056 142° Southeast 196 226 6,000 -840 Descending Seattle Center
04:30PM 47.6753 -122.3111 184° South 184 212 5,000 -1,020 Descending Seattle Center
04:32PM 47.6131 -122.3106 180° South 181 208 3,700 -900 Descending Seattle Center
04:32PM 47.5722 -122.3100 179° South 188 216 3,200 -1,080 Descending Seattle Center
04:33PM 47.5225 -122.3111 181° South 183 211 1,800 -1,140 Descending Seattle Center
04:34PM 47.4847 -122.3108 180° South 131 151 900 -720 Descending Seattle Center
04:35PM 47.4536 -122.3125 182° South 123 142 400 -540 Descending Seattle Center
04:37PM 47.4499 -122.3118 170° South  Level Estimated